Norfolk Ns (Chambers Fld) Airport
KNGU : now visible

Airfield :











YOU CAN JOIN US ON...

 
LOGIN :

Register | Disclaimer

   EN    FR    IT 

 









Legend :    VFR   Marginal VFR   IFR   Intensive IFR   Very Intensive IFR
Visi :
Ceiling :
>= 8 km
>= 3000ft
5 to 8 km
1000 to 3000 ft
1500m to 5 km
500 to 1000 ft
800 to 1500m
200 to 500 ft
< 800m
< 200 ft
Symbols :   Thunderstorms  Fog  Heavy snow  Heavy precipitations  Wind > 20 kt






- Airport Elevation : 17 ft


KNGU - Norfolk Ns (Chambers Fld)

CURRENT METAR :
  • 042359Z 06007KT 10SM FEW085 SCT280 09/M01 A2990 RMK AO2 SLP124 T00941006 10122 20083 53013 $

EXPIRED METARs :
  • 042259Z COR VRB04KT 10SM SCT085 BKN260 09/M01 A2988 RMK AO2 SLP118 T00891011 $
  • 042159Z 07005KT 10SM SCT050 SCT260 11/M02 A2986 RMK AO2 SLP113 T01111017 $

TAF TAF KNGU
Valid from the 04 at 23:00 until the 05 at 23:00 UTC


0423/0523 VRB06KT 9999 SCT085 BKN260 QNH2985INS
FM050300 35013KT 9999 FEW260 QNH2993INS
FM050900 33015KT 9999 SKC QNH3003INS
FM052100 VRB06KT 9999 FEW260 QNH3001INS T11/0423Z T00/0512Z FN20079
KZDC FIR / North America



MET'MAP, your aeronautical weather chart ! - Copyright ORBIFLY December 2007 - Disclaimer

ORBIFLY MET'MAP TEAM :

Programming & Development : Alexandra Zaïnal
Concept & original design : Baudouin d'Aumeries
Assistance for programming : Marc-Olivier Méhu
Technical & hardware support : Manuel Goepfert

Contact : metmap@orbifly.com




SOURCES & CREDITS :

   NOAA       Earth
Advisory